Data for 03/23/2009

Time Sea-Level Adjusted Pressure Absolute Pressure Temperature Relative Humidity Dew Point   
(mb) (inHg) (mb) (inHg) (C) (F) (%) (C) (F)
00:05 1008 29.77 838 24.75 0.7 33.3 96 0.1 32.2
00:10 1008 29.77 838 24.75 0.7 33.3 96 0.1 32.2
00:15 1008 29.77 838 24.75 0.7 33.2 95 -0 31.9
00:20 1008 29.77 838 24.75 0.4 32.7 95 -0.3 31.5
00:25 1009 29.8 838 24.75 0.2 32.3 96 -0.4 31.3
00:30 1009 29.8 838 24.75 -0 32 96 -0.6 31
00:35 1009 29.8 838 24.75 -0.2 31.6 97 -0.7 30.8
00:40 1009 29.8 838 24.75 -0.4 31.3 97 -0.8 30.6
00:45 1009 29.8 838 24.75 -0.5 31.1 98 -0.8 30.5
00:50 1009 29.8 838 24.75 -0.5 31 98 -0.8 30.5
00:55 1009 29.8 838 24.75 -0.6 31 98 -0.9 30.4
01:00 1009 29.8 838 24.75 -0.7 30.8 98 -1 30.2
01:05 1009 29.8 838 24.75 -0.8 30.7 98 -1 30.2
01:10 1009 29.8 838 24.75 -0.7 30.7 98 -1 30.2
01:15 1009 29.8 838 24.75 -0.8 30.5 98 -1.1 30
01:20 1009 29.8 838 24.75 -1 30.2 98 -1.3 29.7
01:25 1009 29.8 839 24.78 -1.1 30 98 -1.4 29.4
01:30 1009 29.8 839 24.78 -1.2 29.9 98 -1.5 29.4
01:35 1009 29.8 839 24.78 -1.3 29.7 98 -1.6 29.2
01:40 1010 29.83 839 24.78 -1.3 29.6 98 -1.6 29.2
01:45 1010 29.83 839 24.78 -1.3 29.6 99 -1.5 29.2
01:50 1010 29.83 839 24.78 -1.4 29.5 98 -1.6 29.1
01:55 1010 29.83 839 24.78 -1.5 29.4 99 -1.6 29
02:00 1010 29.83 839 24.78 -1.5 29.2 98 -1.8 28.8
02:05 1010 29.83 839 24.78 -1.6 29.1 99 -1.8 28.8
02:10 1010 29.83 840 24.81 -1.7 29 98 -1.9 28.5
02:15 1011 29.85 840 24.81 -1.8 28.8 98 -2.1 28.3
02:20 1011 29.85 840 24.81 -1.9 28.6 98 -2.1 28.2
02:25 1011 29.85 840 24.81 -1.9 28.5 98 -2.2 28.1
02:30 1011 29.85 840 24.81 -2 28.4 98 -2.3 27.9
02:35 1011 29.85 840 24.81 -2.1 28.2 98 -2.3 27.8
02:40 1011 29.85 840 24.81 -2.1 28.2 98 -2.3 27.8
02:45 1011 29.85 840 24.81 -2.2 28.1 98 -2.4 27.6
02:50 1011 29.85 840 24.81 -2.2 28 98 -2.5 27.6
02:55 1011 29.85 840 24.81 -2.3 27.9 98 -2.5 27.4
03:00 1011 29.85 840 24.81 -2.3 27.8 98 -2.6 27.3
03:05 1011 29.85 840 24.81 -2.4 27.7 98 -2.7 27.2
03:10 1011 29.85 841 24.83 -2.5 27.6 98 -2.8 27
03:15 1012 29.88 841 24.83 -2.5 27.4 98 -2.8 26.9
03:20 1012 29.88 841 24.83 -2.5 27.4 98 -2.8 26.9
03:25 1012 29.88 841 24.83 -2.6 27.3 98 -2.9 26.8
03:30 1012 29.88 841 24.83 -2.7 27.2 98 -3 26.7
03:35 1012 29.88 841 24.83 -2.7 27.1 98 -3 26.6
03:40 1012 29.88 841 24.83 -2.7 27.2 98 -2.9 26.7
03:45 1012 29.88 841 24.83 -2.7 27.2 98 -3 26.6
03:50 1012 29.88 841 24.83 -2.7 27.1 98 -3 26.5
03:55 1012 29.88 842 24.86 -2.8 27 98 -3.1 26.5
04:00 1012 29.88 842 24.86 -2.8 26.9 98 -3.1 26.4
04:05 1012 29.88 842 24.86 -2.8 26.9 98 -3.1 26.4
04:10 1013 29.91 842 24.86 -2.8 27 98 -3.1 26.5
04:15 1013 29.91 842 24.86 -2.8 26.9 98 -3.2 26.3
04:20 1013 29.91 842 24.86 -2.8 26.9 98 -3.1 26.4
04:25 1013 29.91 842 24.86 -2.8 27 98 -3.1 26.4
04:30 1013 29.91 842 24.86 -2.9 26.8 98 -3.2 26.2
04:35 1013 29.91 842 24.86 -3 26.7 98 -3.3 26.1
04:40 1013 29.91 842 24.86 -3 26.6 97 -3.3 26
04:45 1013 29.91 842 24.86 -3 26.5 97 -3.4 25.8
04:50 1013 29.91 842 24.86 -3.2 26.3 98 -3.5 25.8
04:55 1013 29.91 842 24.86 -3.1 26.4 97 -3.5 25.7
05:00 1013 29.91 842 24.86 -3.2 26.3 97 -3.6 25.6
05:05 1013 29.91 843 24.89 -3.2 26.2 97 -3.6 25.5
05:10 1013 29.91 843 24.89 -3.2 26.2 97 -3.6 25.4
05:15 1013 29.91 843 24.89 -3.3 26.1 98 -3.6 25.5
05:20 1014 29.94 843 24.89 -3.3 26.1 98 -3.6 25.5
05:25 1014 29.94 843 24.89 -3.3 26.1 98 -3.6 25.5
05:30 1014 29.94 843 24.89 -3.3 26.1 98 -3.6 25.5
05:35 1014 29.94 843 24.89 -3.3 26.1 97 -3.7 25.4
05:40 1014 29.94 843 24.89 -3.3 26 97 -3.7 25.3
05:45 1014 29.94 843 24.89 -3.3 26 97 -3.7 25.4
05:50 1014 29.94 843 24.89 -3.3 26 97 -3.7 25.4
05:55 1014 29.94 843 24.89 -3.3 26 97 -3.8 25.2
06:00 1014 29.94 844 24.92 -3.4 25.8 97 -3.8 25.1
06:05 1014 29.94 844 24.92 -3.4 25.8 97 -3.8 25.1
06:10 1014 29.94 844 24.92 -3.4 25.8 97 -3.9 25
06:15 1015 29.97 844 24.92 -3.5 25.7 97 -3.9 25
06:20 1015 29.97 844 24.92 -3.5 25.8 97 -3.9 25
06:25 1015 29.97 844 24.92 -3.5 25.7 97 -4 24.9
06:30 1015 29.97 844 24.92 -3.5 25.6 97 -4 24.8
06:35 1015 29.97 844 24.92 -3.7 25.4 96 -4.1 24.5
06:40 1015 29.97 844 24.92 -3.7 25.4 97 -4.2 24.5
06:45 1015 29.97 844 24.92 -3.7 25.4 97 -4.1 24.6
06:50 1015 29.97 844 24.92 -3.7 25.3 96 -4.2 24.4
06:55 1015 29.97 844 24.92 -3.8 25.2 97 -4.2 24.4
07:00 1015 29.97 844 24.92 -3.7 25.4 96 -4.2 24.4
07:05 1015 29.97 844 24.92 -3.7 25.3 96 -4.3 24.3
07:10 1015 29.97 844 24.92 -3.7 25.3 96 -4.3 24.3
07:15 1015 29.97 844 24.92 -3.7 25.4 96 -4.2 24.5
07:20 1015 29.97 844 24.92 -3.6 25.5 97 -4.1 24.6
07:25 1015 29.97 845 24.95 -3.6 25.6 95 -4.3 24.3
07:30 1015 29.97 845 24.95 -3.6 25.5 95 -4.3 24.3
07:35 1015 29.97 845 24.95 -3.5 25.6 95 -4.3 24.3
07:40 1015 29.97 845 24.95 -3.5 25.8 95 -4.2 24.5
07:45 1016 30 845 24.95 -3.5 25.8 93 -4.4 24.1
07:50 1016 30 845 24.95 -3.5 25.6 94 -4.4 24
07:55 1016 30 845 24.95 -3.6 25.6 94 -4.4 24.1
08:00 1016 30 845 24.95 -3.5 25.6 93 -4.5 23.8
08:05 1016 30 845 24.95 -3.7 25.4 94 -4.6 23.8
08:10 1016 30 845 24.95 -3.6 25.5 93 -4.6 23.7
08:15 1016 30 845 24.95 -3.6 25.5 93 -4.7 23.6
08:20 1016 30 845 24.95 -3.7 25.4 93 -4.6 23.7
08:25 1016 30 845 24.95 -3.6 25.6 93 -4.6 23.8
08:30 1016 30 845 24.95 -3.5 25.6 93 -4.5 23.9
08:35 1016 30 845 24.95 -3.5 25.7 92 -4.6 23.7
08:40 1016 30 845 24.95 -3.6 25.6 92 -4.7 23.5
08:45 1016 30 845 24.95 -3.6 25.5 92 -4.7 23.5
08:50 1016 30 846 24.98 -3.6 25.6 92 -4.7 23.6
08:55 1016 30 846 24.98 -3.6 25.6 92 -4.7 23.5
09:00 1016 30 846 24.98 -3.5 25.7 92 -4.7 23.6
09:05 1017 30.03 846 24.98 -3.5 25.7 92 -4.6 23.6
09:10 1017 30.03 846 24.98 -3.5 25.8 91 -4.7 23.5
09:15 1017 30.03 846 24.98 -3.4 25.9 90 -4.8 23.4
09:20 1017 30.03 846 24.98 -3.4 25.9 91 -4.6 23.6
09:25 1017 30.03 846 24.98 -3.3 26.1 91 -4.5 23.9
09:30 1017 30.03 846 24.98 -3.3 26.1 90 -4.7 23.5
09:35 1017 30.03 846 24.98 -3.3 26.1 91 -4.6 23.7
09:40 1017 30.03 846 24.98 -3.1 26.4 89 -4.7 23.6
09:45 1017 30.03 846 24.98 -3.1 26.5 88 -4.7 23.5
09:50 1017 30.03 846 24.98 -3.1 26.4 88 -4.9 23.2
09:55 1017 30.03 846 24.98 -3 26.5 88 -4.7 23.5
10:00 1017 30.03 846 24.98 -2.9 26.9 87 -4.7 23.5
10:05 1017 30.03 847 25.01 -2.7 27.1 86 -4.8 23.4
10:10 1017 30.03 847 25.01 -2.8 27 85 -4.9 23.1
10:15 1017 30.03 847 25.01 -2.8 27 85 -4.9 23.1
10:20 1017 30.03 847 25.01 -2.8 26.9 86 -4.8 23.3
10:25 1017 30.03 847 25.01 -3 26.7 86 -5 23
10:30 1017 30.03 847 25.01 -3 26.6 85 -5.1 22.8
10:35 1018 30.06 847 25.01 -2.9 26.9 85 -5 23
10:40 1018 30.06 847 25.01 -2.9 26.8 86 -4.9 23.1
10:45 1018 30.06 847 25.01 -2.6 27.3 85 -4.8 23.4
10:50 1018 30.06 847 25.01 -2.6 27.4 84 -4.9 23.1
10:55 1018 30.06 847 25.01 -2.6 27.3 84 -4.9 23.2
11:00 1018 30.06 847 25.01 -2.5 27.5 83 -5 23
11:05 1018 30.06 847 25.01 -2.3 27.8 83 -4.9 23.2
11:10 1018 30.06 847 25.01 -2.2 28 81 -5 22.9
11:15 1018 30.06 847 25.01 -2 28.4 82 -4.8 23.4
11:20 1018 30.06 847 25.01 -2.3 27.9 82 -5 23.1
11:25 1018 30.06 847 25.01 -2.4 27.7 83 -5 23.1
11:30 1018 30.06 847 25.01 -2.4 27.6 84 -4.8 23.3
11:35 1018 30.06 847 25.01 -2.4 27.7 83 -4.9 23.3
11:40 1018 30.06 847 25.01 -2.3 27.8 83 -4.9 23.2
11:45 1018 30.06 847 25.01 -2.2 28.1 83 -4.8 23.4
11:50 1018 30.06 847 25.01 -2.3 27.8 82 -5.1 22.8
11:55 1018 30.06 847 25.01 -2.6 27.3 82 -5.3 22.5
12:00 1018 30.06 847 25.01 -2.6 27.3 82 -5.2 22.6
12:05 1018 30.06 847 25.01 -2.4 27.6 82 -5.2 22.7
12:10 1018 30.06 847 25.01 -1.7 28.9 79 -5 23
12:15 1018 30.06 847 25.01 -2 28.4 79 -5.2 22.7
12:20 1018 30.06 847 25.01 -2 28.3 79 -5.2 22.7
12:25 1018 30.06 847 25.01 -1.8 28.7 77 -5.4 22.2
12:30 1018 30.06 847 25.01 -1.5 29.3 76 -5.2 22.6
12:35 1018 30.06 847 25.01 -1.4 29.4 75 -5.3 22.4
12:40 1018 30.06 847 25.01 -1.3 29.6 77 -4.9 23.2
12:45 1018 30.06 848 25.04 -0.9 30.4 74 -5 22.9
12:50 1018 30.06 848 25.04 -0.9 30.4 72 -5.2 22.6
12:55 1018 30.06 847 25.01 -0.8 30.6 73 -5 23
13:00 1018 30.06 847 25.01 -0.7 30.8 72 -5.1 22.8
13:05 1018 30.06 847 25.01 -0.4 31.4 71 -5.1 22.9
13:10 1018 30.06 847 25.01 -0.5 31.2 72 -4.9 23.3
13:15 1018 30.06 847 25.01 -0 31.9 71 -4.7 23.6
13:20 1018 30.06 847 25.01 0.1 32.2 69 -5 23
13:25 1018 30.06 847 25.01 -0.4 31.3 71 -5 23
13:30 1018 30.06 847 25.01 -0.1 31.8 68 -5.3 22.5
13:35 1018 30.06 847 25.01 -0.2 31.6 70 -5.1 22.9
13:40 1018 30.06 847 25.01 -0.1 31.7 69 -5.2 22.6
13:45 1018 30.06 847 25.01 0.4 32.8 68 -4.9 23.2
13:50 1018 30.06 847 25.01 0.7 33.3 66 -5 22.9
13:55 1018 30.06 848 25.04 0.8 33.4 65 -5.1 22.8
14:00 1018 30.06 848 25.04 0.7 33.3 65 -5.1 22.8
14:05 1018 30.06 848 25.04 0.2 32.4 67 -5.2 22.7
14:10 1018 30.06 848 25.04 0.3 32.6 65 -5.4 22.2
14:15 1018 30.06 848 25.04 0.5 33 66 -5.1 22.7
14:20 1018 30.06 848 25.04 0.8 33.4 63 -5.5 22.1
14:25 1018 30.06 848 25.04 0.4 32.6 65 -5.4 22.2
14:30 1018 30.06 848 25.04 0.5 32.8 65 -5.3 22.5
14:35 1018 30.06 848 25.04 0.1 32.3 66 -5.4 22.2
14:40 1018 30.06 848 25.04 0.2 32.3 66 -5.5 22.1
14:45 1018 30.06 847 25.01 0.4 32.7 63 -5.8 21.6
14:50 1018 30.06 847 25.01 0.3 32.5 64 -5.7 21.7
14:55 1018 30.06 847 25.01 0.5 32.8 65 -5.4 22.2
15:00 1018 30.06 848 25.04 1 33.7 60 -5.9 21.3
15:05 1018 30.06 848 25.04 0.6 33 62 -5.9 21.4
15:10 1018 30.06 848 25.04 0.7 33.3 63 -5.6 22
15:15 1018 30.06 848 25.04 0.5 32.9 64 -5.5 22.1
15:20 1018 30.06 848 25.04 0.6 33 63 -5.7 21.8
15:25 1018 30.06 848 25.04 1.2 34.2 60 -5.7 21.8
15:30 1018 30.06 847 25.01 1.6 34.9 57 -6 21.2
15:35 1018 30.06 847 25.01 1.8 35.3 58 -5.6 21.9
15:40 1018 30.06 847 25.01 1.5 34.7 58 -5.9 21.4
15:45 1018 30.06 847 25.01 2.4 36.3 52 -6.4 20.4
15:50 1018 30.06 847 25.01 2.6 36.6 54 -5.9 21.4
15:55 1018 30.06 848 25.04 2.4 36.4 54 -5.8 21.5
16:00 1018 30.06 848 25.04 3 37.5 51 -6.1 20.9
16:05 1018 30.06 848 25.04 2.8 37.1 57 -4.9 23.1
16:10 1018 30.06 848 25.04 2.2 35.9 56 -5.8 21.6
16:15 1018 30.06 848 25.04 2.7 36.9 50 -6.6 20.1
16:20 1019 30.09 848 25.04 3.3 37.9 53 -5.5 22.1
16:25 1019 30.09 848 25.04 2.2 36 58 -5.2 22.7
16:30 1019 30.09 848 25.04 1.9 35.4 60 -5.2 22.7
16:35 1019 30.09 848 25.04 2 35.7 56 -5.9 21.4
16:40 1019 30.09 848 25.04 2.1 35.9 55 -6 21.2
16:45 1019 30.09 848 25.04 2.5 36.6 54 -5.9 21.4
16:50 1019 30.09 848 25.04 2.4 36.2 56 -5.4 22.2
16:55 1019 30.09 848 25.04 1.8 35.2 58 -5.7 21.7
17:00 1019 30.09 848 25.04 2.8 37 55 -5.4 22.3
17:05 1019 30.09 848 25.04 2.6 36.6 56 -5.4 22.2
17:10 1019 30.09 848 25.04 1.9 35.5 57 -5.6 21.9
17:15 1019 30.09 848 25.04 0.8 33.5 59 -6.3 20.7
17:20 1019 30.09 848 25.04 0.8 33.4 59 -6.2 20.8
17:25 1019 30.09 848 25.04 1 33.9 60 -6 21.2
17:30 1019 30.09 848 25.04 1 33.7 60 -6 21.1
17:35 1019 30.09 848 25.04 0.9 33.6 61 -5.9 21.4
17:40 1019 30.09 848 25.04 1.2 34.2 59 -5.9 21.4
17:45 1019 30.09 848 25.04 1.3 34.4 59 -5.9 21.3
17:50 1019 30.09 848 25.04 1 33.8 60 -5.9 21.5
17:55 1019 30.09 848 25.04 1.3 34.4 58 -6 21.2
18:00 1019 30.09 848 25.04 1.5 34.7 59 -5.8 21.6
18:05 1019 30.09 848 25.04 1.5 34.7 60 -5.4 22.2
18:10 1019 30.09 848 25.04 1.4 34.5 60 -5.4 22.3
18:15 1019 30.09 848 25.04 1.5 34.6 59 -5.6 21.9
18:20 1019 30.09 848 25.04 1.8 35.3 60 -5 22.9
18:25 1019 30.09 848 25.04 1.9 35.4 58 -5.5 22.2
18:30 1019 30.09 848 25.04 1.7 35.1 62 -4.7 23.5
18:35 1019 30.09 848 25.04 1.2 34.1 67 -4.3 24.3
18:40 1019 30.09 848 25.04 0.5 32.9 70 -4.2 24.4
18:45 1019 30.09 848 25.04 0.2 32.3 73 -4.2 24.5
18:50 1019 30.09 848 25.04 0.1 32.2 74 -4.1 24.7
18:55 1019 30.09 848 25.04 0 32.1 73 -4.2 24.4
19:00 1019 30.09 848 25.04 0.1 32.1 72 -4.3 24.2
19:05 1019 30.09 848 25.04 0.1 32.2 72 -4.4 24.1
19:10 1019 30.09 848 25.04 0 32.1 72 -4.4 24
19:15 1019 30.09 848 25.04 0.1 32.1 73 -4.2 24.5
19:20 1019 30.09 848 25.04 0.1 32.1 73 -4.1 24.6
19:25 1019 30.09 848 25.04 -0 32 72 -4.6 23.8
19:30 1019 30.09 848 25.04 0.1 32.2 72 -4.4 24.1
19:35 1019 30.09 848 25.04 0.4 32.6 71 -4.2 24.4
19:40 1019 30.09 849 25.07 0.4 32.6 70 -4.5 23.9
19:45 1019 30.09 849 25.07 0.6 33 70 -4.3 24.2
19:50 1019 30.09 849 25.07 0.6 33 70 -4.2 24.4
19:55 1019 30.09 849 25.07 0.3 32.6 71 -4.4 24.1
20:00 1019 30.09 849 25.07 0.3 32.6 72 -4.2 24.4
20:05 1019 30.09 849 25.07 0.2 32.4 72 -4.3 24.3
20:10 1019 30.09 849 25.07 0.2 32.3 72 -4.4 24.2
20:15 1019 30.09 849 25.07 0.4 32.8 70 -4.4 24.1
20:20 1019 30.09 849 25.07 0.9 33.6 71 -3.7 25.3
20:25 1020 30.12 849 25.07 0.8 33.5 74 -3.4 25.9
20:30 1020 30.12 849 25.07 0.8 33.5 72 -3.6 25.5
20:35 1020 30.12 849 25.07 0.8 33.5 73 -3.4 25.9
20:40 1020 30.12 849 25.07 0.9 33.6 73 -3.4 25.8
20:45 1020 30.12 849 25.07 0.9 33.6 73 -3.4 25.9
20:50 1020 30.12 849 25.07 0.9 33.6 73 -3.3 26
20:55 1020 30.12 849 25.07 0.8 33.5 74 -3.3 26.1
21:00 1020 30.12 849 25.07 0.8 33.5 75 -3.2 26.3
21:05 1020 30.12 849 25.07 0.8 33.4 74 -3.2 26.2
21:10 1020 30.12 849 25.07 0.8 33.4 75 -3.1 26.4
21:15 1020 30.12 849 25.07 0.8 33.5 76 -2.9 26.7
21:20 1020 30.12 849 25.07 0.8 33.5 77 -2.8 26.9
21:25 1020 30.12 849 25.07 0.8 33.4 77 -2.8 26.9
21:30 1020 30.12 849 25.07 0.8 33.4 77 -2.7 27.1
21:35 1020 30.12 849 25.07 0.8 33.4 77 -2.8 27
21:40 1020 30.12 849 25.07 0.8 33.4 77 -2.8 27
21:45 1020 30.12 849 25.07 0.8 33.4 78 -2.7 27.2
21:50 1020 30.12 849 25.07 0.8 33.4 78 -2.6 27.3
21:55 1020 30.12 849 25.07 0.8 33.4 79 -2.5 27.5
22:00 1020 30.12 849 25.07 0.7 33.3 79 -2.6 27.4
22:05 1020 30.12 849 25.07 0.7 33.2 79 -2.6 27.3
22:10 1020 30.12 849 25.07 0.6 33.1 79 -2.6 27.3
22:15 1020 30.12 849 25.07 0.6 33.1 79 -2.7 27.1
22:20 1020 30.12 849 25.07 0.6 33 80 -2.5 27.5
22:25 1020 30.12 849 25.07 0.4 32.7 81 -2.5 27.6
22:30 1020 30.12 849 25.07 0.4 32.7 82 -2.4 27.7
22:35 1020 30.12 849 25.07 0.3 32.5 84 -2.2 28.1
22:40 1020 30.12 849 25.07 0.2 32.4 84 -2.1 28.1
22:45 1020 30.12 849 25.07 0.1 32.3 85 -2.1 28.2
22:50 1020 30.12 849 25.07 -0 31.9 87 -2 28.4
22:55 1020 30.12 849 25.07 -0.2 31.6 88 -2 28.4
23:00 1020 30.12 849 25.07 -0.2 31.7 86 -2.2 28.1
23:05 1020 30.12 849 25.07 -0.3 31.5 87 -2.1 28.2
23:10 1020 30.12 849 25.07 -0.2 31.7 87 -2.1 28.2
23:15 1020 30.12 849 25.07 -0 31.9 87 -2 28.4
23:20 1020 30.12 849 25.07 -0 31.9 87 -1.9 28.5
23:25 1020 30.12 849 25.07 -0.1 31.9 88 -1.8 28.8
23:30 1020 30.12 849 25.07 -0.1 31.8 88 -1.8 28.7
23:35 1020 30.12 849 25.07 -0.1 31.8 89 -1.6 29
23:40 1020 30.12 849 25.07 -0.1 31.8 89 -1.7 29
23:45 1020 30.12 849 25.07 -0.1 31.8 90 -1.6 29.2
23:50 1020 30.12 849 25.07 -0 31.9 90 -1.5 29.3
23:55 1020 30.12 849 25.07 0 32.1 90 -1.4 29.5
24:00 1020 30.12 849 25.07 -0.1 31.8 91 -1.4 29.5